sensor_id;sensor_type;location;lat;lon;timestamp;temperature;humidity
10441;DHT22;5268;49.346;9.522;2023-04-06T03:09:37;0.80;98.50
10441;DHT22;5268;49.346;9.522;2023-04-06T03:14:39;0.70;98.30
10441;DHT22;5268;49.346;9.522;2023-04-06T03:19:41;0.60;98.00
10441;DHT22;5268;49.346;9.522;2023-04-06T03:24:44;0.60;97.80
10441;DHT22;5268;49.346;9.522;2023-04-06T03:29:46;0.60;98.20
10441;DHT22;5268;49.346;9.522;2023-04-06T03:34:48;0.60;98.00
10441;DHT22;5268;49.346;9.522;2023-04-06T03:39:52;0.40;98.00
10441;DHT22;5268;49.346;9.522;2023-04-06T03:44:54;0.40;97.90
10441;DHT22;5268;49.346;9.522;2023-04-06T03:49:56;0.40;97.50
10441;DHT22;5268;49.346;9.522;2023-04-06T03:54:59;0.30;97.70
10441;DHT22;5268;49.346;9.522;2023-04-06T04:00:01;0.30;97.80
10441;DHT22;5268;49.346;9.522;2023-04-06T04:05:04;0.30;97.80
10441;DHT22;5268;49.346;9.522;2023-04-06T04:10:08;0.20;98.40
10441;DHT22;5268;49.346;9.522;2023-04-06T04:15:10;0.20;97.60
10441;DHT22;5268;49.346;9.522;2023-04-06T04:20:12;0.20;97.60
10441;DHT22;5268;49.346;9.522;2023-04-06T04:25:16;0.20;97.90
10441;DHT22;5268;49.346;9.522;2023-04-06T04:30:18;0.20;98.60
10441;DHT22;5268;49.346;9.522;2023-04-06T04:35:20;0.20;98.60
10441;DHT22;5268;49.346;9.522;2023-04-06T04:40:24;0.20;98.70
10441;DHT22;5268;49.346;9.522;2023-04-06T04:45:26;0.20;98.30
10441;DHT22;5268;49.346;9.522;2023-04-06T04:50:28;0.10;98.30
10441;DHT22;5268;49.346;9.522;2023-04-06T04:55:31;0.10;99.90
10441;DHT22;5268;49.346;9.522;2023-04-06T05:00:33;0.00;98.70
10441;DHT22;5268;49.346;9.522;2023-04-06T05:05:35;0.00;98.30
10441;DHT22;5268;49.346;9.522;2023-04-06T05:10:38;0.00;98.20
10441;DHT22;5268;49.346;9.522;2023-04-06T05:15:40;0.00;98.60
10441;DHT22;5268;49.346;9.522;2023-04-06T05:20:42;0.00;99.40
10441;DHT22;5268;49.346;9.522;2023-04-06T05:25:46;0.00;99.50
10441;DHT22;5268;49.346;9.522;2023-04-06T05:30:48;0.00;99.50
10441;DHT22;5268;49.346;9.522;2023-04-06T05:35:50;0.00;98.90
10441;DHT22;5268;49.346;9.522;2023-04-06T05:40:54;0.00;99.00
10441;DHT22;5268;49.346;9.522;2023-04-06T05:45:56;0.10;99.20
10441;DHT22;5268;49.346;9.522;2023-04-06T05:50:58;0.10;99.20
10441;DHT22;5268;49.346;9.522;2023-04-06T05:56:02;0.20;99.90
10441;DHT22;5268;49.346;9.522;2023-04-06T06:01:04;0.20;99.90
10441;DHT22;5268;49.346;9.522;2023-04-06T06:06:06;0.10;99.90
10441;DHT22;5268;49.346;9.522;2023-04-06T06:11:10;0.00;99.90
10441;DHT22;5268;49.346;9.522;2023-04-06T06:16:12;0.00;99.90
10441;DHT22;5268;49.346;9.522;2023-04-06T06:21:14;0.10;99.90
10441;DHT22;5268;49.346;9.522;2023-04-06T06:26:19;0.30;99.90
10441;DHT22;5268;49.346;9.522;2023-04-06T06:31:21;0.50;99.90
10441;DHT22;5268;49.346;9.522;2023-04-06T06:36:23;1.00;99.90
10441;DHT22;5268;49.346;9.522;2023-04-06T06:41:27;1.60;99.90
10441;DHT22;5268;49.346;9.522;2023-04-06T06:46:29;2.00;99.90
10441;DHT22;5268;49.346;9.522;2023-04-06T06:51:31;2.50;99.90
10441;DHT22;5268;49.346;9.522;2023-04-06T06:56:34;2.70;99.90
10441;DHT22;5268;49.346;9.522;2023-04-06T07:01:38;2.80;99.90
10441;DHT22;5268;49.346;9.522;2023-04-06T07:06:40;3.00;99.90
10441;DHT22;5268;49.346;9.522;2023-04-06T07:11:44;3.20;99.90
10441;DHT22;5268;49.346;9.522;2023-04-06T07:16:45;3.60;99.90
10441;DHT22;5268;49.346;9.522;2023-04-06T07:21:49;3.90;99.90
10441;DHT22;5268;49.346;9.522;2023-04-06T07:26:52;4.10;99.90
10441;DHT22;5268;49.346;9.522;2023-04-06T07:31:56;4.40;99.90
10441;DHT22;5268;49.346;9.522;2023-04-06T07:36:58;4.80;99.90
10441;DHT22;5268;49.346;9.522;2023-04-06T07:42:02;5.20;99.90
10441;DHT22;5268;49.346;9.522;2023-04-06T07:47:04;5.70;99.90
10441;DHT22;5268;49.346;9.522;2023-04-06T07:52:06;6.20;99.90
10441;DHT22;5268;49.346;9.522;2023-04-06T07:57:09;6.70;99.90
10441;DHT22;5268;49.346;9.522;2023-04-06T08:02:11;7.20;99.90
10441;DHT22;5268;49.346;9.522;2023-04-06T08:07:13;7.60;99.90
10441;DHT22;5268;49.346;9.522;2023-04-06T08:12:17;7.90;99.90
10441;DHT22;5268;49.346;9.522;2023-04-06T08:17:19;8.30;99.90
10441;DHT22;5268;49.346;9.522;2023-04-06T08:22:21;8.60;99.90
10441;DHT22;5268;49.346;9.522;2023-04-06T08:27:24;9.00;99.90
10441;DHT22;5268;49.346;9.522;2023-04-06T08:32:26;9.50;99.90
10441;DHT22;5268;49.346;9.522;2023-04-06T08:37:28;9.90;99.90
10441;DHT22;5268;49.346;9.522;2023-04-06T08:42:33;10.40;99.90
10441;DHT22;5268;49.346;9.522;2023-04-06T08:47:39;10.90;99.90
10441;DHT22;5268;49.346;9.522;2023-04-06T08:52:43;11.30;99.90
10441;DHT22;5268;49.346;9.522;2023-04-06T08:57:47;11.70;99.90
10441;DHT22;5268;49.346;9.522;2023-04-06T09:02:49;12.10;99.90
10441;DHT22;5268;49.346;9.522;2023-04-06T09:07:52;12.50;99.90
10441;DHT22;5268;49.346;9.522;2023-04-06T09:13:05;12.50;99.90
10441;DHT22;5268;49.346;9.522;2023-04-06T09:18:07;12.70;99.90
10441;DHT22;5268;49.346;9.522;2023-04-06T09:23:17;13.00;99.90
10441;DHT22;5268;49.346;9.522;2023-04-06T09:28:21;13.40;99.90
10441;DHT22;5268;49.346;9.522;2023-04-06T09:33:23;13.70;99.90
10441;DHT22;5268;49.346;9.522;2023-04-06T09:38:25;14.00;99.90
10441;DHT22;5268;49.346;9.522;2023-04-06T09:43:29;14.20;99.90
10441;DHT22;5268;49.346;9.522;2023-04-06T09:48:31;14.50;99.90
10441;DHT22;5268;49.346;9.522;2023-04-06T09:53:38;14.60;99.90
10441;DHT22;5268;49.346;9.522;2023-04-06T09:58:47;14.80;99.90
10441;DHT22;5268;49.346;9.522;2023-04-06T10:03:56;15.00;99.90
10441;DHT22;5268;49.346;9.522;2023-04-06T10:09:00;15.20;99.90
10441;DHT22;5268;49.346;9.522;2023-04-06T10:14:05;15.30;99.90
10441;DHT22;5268;49.346;9.522;2023-04-06T10:19:13;15.50;99.90
10441;DHT22;5268;49.346;9.522;2023-04-06T10:24:17;15.60;99.90
10441;DHT22;5268;49.346;9.522;2023-04-06T10:29:21;15.60;99.90
10441;DHT22;5268;49.346;9.522;2023-04-06T10:34:22;15.60;99.90
10441;DHT22;5268;49.346;9.522;2023-04-06T10:39:25;15.80;99.90
10441;DHT22;5268;49.346;9.522;2023-04-06T10:44:29;16.00;99.90
10441;DHT22;5268;49.346;9.522;2023-04-06T10:49:31;16.10;99.90
10441;DHT22;5268;49.346;9.522;2023-04-06T10:54:33;15.50;94.00
10441;DHT22;5268;49.346;9.522;2023-04-06T10:59:42;15.40;84.30
10441;DHT22;5268;49.346;9.522;2023-04-06T11:04:54;15.40;92.00
10441;DHT22;5268;49.346;9.522;2023-04-06T11:09:56;15.40;96.00
10441;DHT22;5268;49.346;9.522;2023-04-06T11:15:00;15.70;99.20
10441;DHT22;5268;49.346;9.522;2023-04-06T11:20:10;15.60;95.40
10441;DHT22;5268;49.346;9.522;2023-04-06T11:25:12;15.80;96.60
10441;DHT22;5268;49.346;9.522;2023-04-06T11:30:18;15.60;95.10
10441;DHT22;5268;49.346;9.522;2023-04-06T11:35:21;15.50;94.30
10441;DHT22;5268;49.346;9.522;2023-04-06T11:40:23;15.60;80.30
10441;DHT22;5268;49.346;9.522;2023-04-06T11:45:27;15.40;93.10
10441;DHT22;5268;49.346;9.522;2023-04-06T11:50:32;15.60;94.10
10441;DHT22;5268;49.346;9.522;2023-04-06T11:55:37;15.80;88.30
10441;DHT22;5268;49.346;9.522;2023-04-06T12:00:43;14.80;72.10
10441;DHT22;5268;49.346;9.522;2023-04-06T12:05:47;15.00;90.20
10441;DHT22;5268;49.346;9.522;2023-04-06T12:10:50;15.40;92.90
10441;DHT22;5268;49.346;9.522;2023-04-06T12:15:53;15.50;87.70
10441;DHT22;5268;49.346;9.522;2023-04-06T12:20:55;15.70;92.40
10441;DHT22;5268;49.346;9.522;2023-04-06T12:25:57;15.60;94.00
10441;DHT22;5268;49.346;9.522;2023-04-06T12:31:00;15.90;95.50
10441;DHT22;5268;49.346;9.522;2023-04-06T12:36:02;16.00;89.20
10441;DHT22;5268;49.346;9.522;2023-04-06T12:41:04;15.60;80.60
10441;DHT22;5268;49.346;9.522;2023-04-06T12:46:08;15.90;94.80
10441;DHT22;5268;49.346;9.522;2023-04-06T12:51:10;16.10;93.90
10441;DHT22;5268;49.346;9.522;2023-04-06T12:56:14;16.00;82.70
10441;DHT22;5268;49.346;9.522;2023-04-06T13:01:18;15.50;81.20
10441;DHT22;5268;49.346;9.522;2023-04-06T13:06:21;15.50;88.20
10441;DHT22;5268;49.346;9.522;2023-04-06T13:11:23;15.70;88.00
10441;DHT22;5268;49.346;9.522;2023-04-06T13:16:27;15.70;93.10
10441;DHT22;5268;49.346;9.522;2023-04-06T13:21:29;15.10;71.70
10441;DHT22;5268;49.346;9.522;2023-04-06T13:26:32;15.10;83.40
10441;DHT22;5268;49.346;9.522;2023-04-06T13:31:35;14.80;67.00
10441;DHT22;5268;49.346;9.522;2023-04-06T13:36:37;14.80;79.40
10441;DHT22;5268;49.346;9.522;2023-04-06T13:41:41;14.70;76.00
10441;DHT22;5268;49.346;9.522;2023-04-06T13:46:45;14.70;81.30
10441;DHT22;5268;49.346;9.522;2023-04-06T13:51:47;14.80;87.50
10441;DHT22;5268;49.346;9.522;2023-04-06T13:56:49;15.10;87.20
10441;DHT22;5268;49.346;9.522;2023-04-06T14:01:52;15.30;88.10
10441;DHT22;5268;49.346;9.522;2023-04-06T14:06:54;15.40;91.10
10441;DHT22;5268;49.346;9.522;2023-04-06T14:11:56;15.50;89.30
10441;DHT22;5268;49.346;9.522;2023-04-06T14:16:59;15.40;90.00
10441;DHT22;5268;49.346;9.522;2023-04-06T14:22:01;15.40;90.60
10441;DHT22;5268;49.346;9.522;2023-04-06T14:27:04;15.40;90.50
10441;DHT22;5268;49.346;9.522;2023-04-06T14:32:07;15.50;90.30
10441;DHT22;5268;49.346;9.522;2023-04-06T14:37:09;15.50;90.40
10441;DHT22;5268;49.346;9.522;2023-04-06T14:42:11;15.50;83.30
10441;DHT22;5268;49.346;9.522;2023-04-06T14:47:15;15.40;87.80
10441;DHT22;5268;49.346;9.522;2023-04-06T14:52:20;14.90;67.00
10441;DHT22;5268;49.346;9.522;2023-04-06T14:57:22;14.90;81.60
10441;DHT22;5268;49.346;9.522;2023-04-06T15:02:26;15.00;90.80
10441;DHT22;5268;49.346;9.522;2023-04-06T15:07:28;14.90;90.30
10441;DHT22;5268;49.346;9.522;2023-04-06T15:12:30;15.00;90.80
10441;DHT22;5268;49.346;9.522;2023-04-06T15:17:34;15.00;89.90
10441;DHT22;5268;49.346;9.522;2023-04-06T15:22:36;15.00;90.50
10441;DHT22;5268;49.346;9.522;2023-04-06T15:27:37;15.00;91.50
10441;DHT22;5268;49.346;9.522;2023-04-06T15:32:52;15.00;90.50
10441;DHT22;5268;49.346;9.522;2023-04-06T15:37:54;15.00;90.40
10441;DHT22;5268;49.346;9.522;2023-04-06T15:42:56;14.90;90.10
10441;DHT22;5268;49.346;9.522;2023-04-06T15:47:59;14.80;91.00
10441;DHT22;5268;49.346;9.522;2023-04-06T15:53:01;14.80;91.40
10441;DHT22;5268;49.346;9.522;2023-04-06T15:58:03;14.80;82.90
10441;DHT22;5268;49.346;9.522;2023-04-06T16:03:08;14.80;92.20
10441;DHT22;5268;49.346;9.522;2023-04-06T16:08:10;14.80;91.60
10441;DHT22;5268;49.346;9.522;2023-04-06T16:13:13;14.70;89.90
10441;DHT22;5268;49.346;9.522;2023-04-06T16:18:17;14.70;91.50
10441;DHT22;5268;49.346;9.522;2023-04-06T16:23:19;14.70;92.00
10441;DHT22;5268;49.346;9.522;2023-04-06T16:28:21;14.70;92.40
10441;DHT22;5268;49.346;9.522;2023-04-06T16:33:26;14.60;92.00
10441;DHT22;5268;49.346;9.522;2023-04-06T16:38:27;14.60;92.70
10441;DHT22;5268;49.346;9.522;2023-04-06T16:43:35;14.50;92.60
10441;DHT22;5268;49.346;9.522;2023-04-06T16:48:38;14.40;92.20
10441;DHT22;5268;49.346;9.522;2023-04-06T16:53:40;14.30;93.00
10441;DHT22;5268;49.346;9.522;2023-04-06T16:58:42;14.20;92.70
10441;DHT22;5268;49.346;9.522;2023-04-06T17:03:47;14.10;93.20
10441;DHT22;5268;49.346;9.522;2023-04-06T17:08:49;14.00;93.30
10441;DHT22;5268;49.346;9.522;2023-04-06T17:13:53;13.90;93.60
10441;DHT22;5268;49.346;9.522;2023-04-06T17:18:56;13.80;93.60
10441;DHT22;5268;49.346;9.522;2023-04-06T17:23:58;13.70;93.70
10441;DHT22;5268;49.346;9.522;2023-04-06T17:29:00;13.60;93.30
10441;DHT22;5268;49.346;9.522;2023-04-06T17:34:04;13.50;92.90
10441;DHT22;5268;49.346;9.522;2023-04-06T17:39:06;13.40;93.60
10441;DHT22;5268;49.346;9.522;2023-04-06T17:44:08;13.30;93.80
10441;DHT22;5268;49.346;9.522;2023-04-06T17:49:11;13.20;93.60
10441;DHT22;5268;49.346;9.522;2023-04-06T17:54:13;13.00;93.50
10441;DHT22;5268;49.346;9.522;2023-04-06T17:59:15;12.90;93.50
10441;DHT22;5268;49.346;9.522;2023-04-06T18:04:19;12.80;93.70
10441;DHT22;5268;49.346;9.522;2023-04-06T18:09:21;12.70;93.50
10441;DHT22;5268;49.346;9.522;2023-04-06T18:14:23;12.60;93.70
10441;DHT22;5268;49.346;9.522;2023-04-06T18:19:27;12.40;93.90
10441;DHT22;5268;49.346;9.522;2023-04-06T18:24:29;12.30;93.80
10441;DHT22;5268;49.346;9.522;2023-04-06T18:29:31;12.20;93.80
10441;DHT22;5268;49.346;9.522;2023-04-06T18:34:35;12.10;94.00
10441;DHT22;5268;49.346;9.522;2023-04-06T18:39:38;12.10;94.10
10441;DHT22;5268;49.346;9.522;2023-04-06T18:44:40;12.00;94.20
10441;DHT22;5268;49.346;9.522;2023-04-06T18:49:43;11.90;94.20
10441;DHT22;5268;49.346;9.522;2023-04-06T18:54:46;11.80;94.20
10441;DHT22;5268;49.346;9.522;2023-04-06T18:59:48;11.70;94.30
10441;DHT22;5268;49.346;9.522;2023-04-06T19:04:51;11.60;94.40
10441;DHT22;5268;49.346;9.522;2023-04-06T19:09:53;11.50;94.50
10441;DHT22;5268;49.346;9.522;2023-04-06T19:14:55;11.40;95.30
10441;DHT22;5268;49.346;9.522;2023-04-06T19:19:59;11.30;94.60
10441;DHT22;5268;49.346;9.522;2023-04-06T19:25:01;11.20;94.60
10441;DHT22;5268;49.346;9.522;2023-04-06T19:30:03;11.20;94.80
10441;DHT22;5268;49.346;9.522;2023-04-06T19:35:07;11.10;95.10
10441;DHT22;5268;49.346;9.522;2023-04-06T19:40:09;11.10;94.90
10441;DHT22;5268;49.346;9.522;2023-04-06T19:45:11;10.90;95.20
10441;DHT22;5268;49.346;9.522;2023-04-06T19:50:15;10.90;95.30
10441;DHT22;5268;49.346;9.522;2023-04-06T19:55:17;10.90;95.10
10441;DHT22;5268;49.346;9.522;2023-04-06T20:00:19;10.80;95.20
10441;DHT22;5268;49.346;9.522;2023-04-06T20:05:22;10.80;95.10
10441;DHT22;5268;49.346;9.522;2023-04-06T20:10:24;10.80;95.10
10441;DHT22;5268;49.346;9.522;2023-04-06T20:15:26;10.80;94.90
10441;DHT22;5268;49.346;9.522;2023-04-06T20:20:30;10.70;95.00
10441;DHT22;5268;49.346;9.522;2023-04-06T20:25:32;10.70;95.10
10441;DHT22;5268;49.346;9.522;2023-04-06T20:30:34;10.80;95.20
10441;DHT22;5268;49.346;9.522;2023-04-06T20:35:38;10.80;95.10
10441;DHT22;5268;49.346;9.522;2023-04-06T20:40:43;10.80;95.20
10441;DHT22;5268;49.346;9.522;2023-04-06T20:45:45;10.90;95.30
10441;DHT22;5268;49.346;9.522;2023-04-06T20:50:49;10.90;95.30
10441;DHT22;5268;49.346;9.522;2023-04-06T20:55:51;10.80;95.20
10441;DHT22;5268;49.346;9.522;2023-04-06T21:00:53;10.80;95.50
10441;DHT22;5268;49.346;9.522;2023-04-06T21:05:57;10.80;95.20
10441;DHT22;5268;49.346;9.522;2023-04-06T21:11:01;10.80;95.10
10441;DHT22;5268;49.346;9.522;2023-04-06T21:16:04;10.80;95.20
10441;DHT22;5268;49.346;9.522;2023-04-06T21:21:08;10.80;95.20
10441;DHT22;5268;49.346;9.522;2023-04-06T21:26:11;10.70;95.30
10441;DHT22;5268;49.346;9.522;2023-04-06T21:31:13;10.70;95.40
10441;DHT22;5268;49.346;9.522;2023-04-06T21:36:17;10.70;95.40
10441;DHT22;5268;49.346;9.522;2023-04-06T21:41:20;10.70;95.50
10441;DHT22;5268;49.346;9.522;2023-04-06T21:46:22;10.70;95.40
10441;DHT22;5268;49.346;9.522;2023-04-06T21:51:25;10.70;95.50
